Time;durP1;ratioP1;P1;durP2;ratioP2;P2;SDS_P1;SDS_P2;PMS_P1;PMS_P2;Temp;Humidity;BMP_temperature;BMP_pressure;BME280_temperature;BME280_humidity;BME280_pressure;Samples;Min_cycle;Max_cycle;Signal;HPM_P1;HPM_P2
2021/05/18 00:01:15;;;;;;;2.00;1.90;;;;;;;13.20;82.41;93688.06;827852;71;32764;-77
2021/05/18 00:16:15;;;;;;;2.20;2.10;;;;;;;13.12;82.45;93706.02;833826;71;33178;-75
2021/05/18 00:31:14;;;;;;;1.90;1.80;;;;;;;13.02;82.86;93724.85;833914;71;33091;-77
2021/05/18 00:46:11;;;;;;;2.05;1.92;;;;;;;13.05;83.33;93738.67;828626;71;31331;-77
2021/05/18 01:01:20;;;;;;;2.40;2.30;;;;;;;13.13;84.48;93792.39;834033;71;30244;-78
2021/05/18 01:16:10;;;;;;;3.83;2.50;;;;;;;13.12;86.07;93713.13;828751;71;29547;-77
2021/05/18 01:31:21;;;;;;;2.90;2.70;;;;;;;12.94;84.75;93755.97;827958;71;32679;-75
2021/05/18 01:46:14;;;;;;;2.55;2.45;;;;;;;13.03;84.60;93769.28;827786;71;32702;-77
2021/05/18 02:01:09;;;;;;;3.35;2.60;;;;;;;13.05;84.45;93791.91;834035;71;30352;-78
2021/05/18 02:16:25;;;;;;;3.02;2.83;;;;;;;13.12;84.64;93800.84;827514;71;32694;-78
2021/05/18 02:31:14;;;;;;;3.00;2.80;;;;;;;13.13;84.01;93840.56;833880;71;33178;-78
2021/05/18 03:01:58;;;;;;;6.83;6.22;;;;;;;13.20;83.51;93869.83;833891;71;32734;-75
2021/05/18 03:16:09;;;;;;;7.37;6.78;;;;;;;13.29;82.74;93873.75;828208;71;30312;-77
2021/05/18 05:01:17;;;;;;;3.92;3.58;;;;;;;17.20;65.03;93943.08;834129;71;29815;-78
2021/05/18 05:16:14;;;;;;;3.90;3.60;;;;;;;17.61;61.24;93964.84;827522;71;33192;-78
2021/05/18 05:31:09;;;;;;;2.98;2.77;;;;;;;18.01;58.92;93972.58;828236;71;30272;-78
2021/05/18 05:46:15;;;;;;;2.70;2.60;;;;;;;18.66;56.63;93981.06;827747;71;32747;-77
2021/05/18 06:01:19;;;;;;;2.95;2.75;;;;;;;20.00;52.89;93988.22;827637;71;32767;-77
2021/05/18 06:46:24;;;;;;;2.57;2.33;;;;;;;22.49;46.12;94002.16;828745;71;29698;-79
2021/05/18 07:01:18;;;;;;;2.53;2.33;;;;;;;23.60;40.83;94008.33;834327;71;32700;-82
2021/05/18 07:16:14;;;;;;;2.10;2.00;;;;;;;24.39;37.69;94003.67;834485;71;33176;-79
2021/05/18 07:31:14;;;;;;;2.30;2.10;;;;;;;25.32;36.09;94017.84;828689;71;32893;-81
2021/05/18 07:46:17;;;;;;;2.77;2.23;;;;;;;;;;834393;71;33099;-80
2021/05/18 08:02:19;;;;;;;2.10;1.80;;;;;;;24.62;34.99;93944.02;829070;71;30844;-80
2021/05/18 10:46:22;;;;;;;1.80;1.70;;;;;;;24.63;33.36;94026.78;827748;71;32756;-79
2021/05/18 11:01:15;;;;;;;1.60;1.50;;;;;;;23.97;33.84;94038.80;827556;71;33213;-79
2021/05/18 11:16:11;;;;;;;1.50;1.20;;;;;;;25.03;33.37;94040.05;834238;71;30186;-79
2021/05/18 11:31:20;;;;;;;1.67;1.40;;;;;;;25.36;31.05;94020.68;834049;71;32718;-79
2021/05/18 11:46:13;;;;;;;1.53;1.43;;;;;;;;;;827555;71;32672;-80
2021/05/18 12:31:11;;;;;;;1.57;1.47;;;;;;;23.43;31.24;94014.46;835215;71;29808;-79
2021/05/18 12:46:18;;;;;;;1.10;1.10;;;;;;;23.72;30.08;94023.26;834103;71;32677;-80
2021/05/18 13:01:24;;;;;;;1.40;1.30;;;;;;;23.11;30.71;94019.19;834164;71;32677;-79
2021/05/18 13:16:24;;;;;;;2.07;1.90;;;;;;;23.49;30.70;93997.63;828531;71;29805;-80
2021/05/18 13:31:15;;;;;;;1.10;1.10;;;;;;;23.28;29.97;93994.37;827811;71;32671;-77
2021/05/18 13:46:18;;;;;;;1.30;1.30;;;;;;;22.99;31.81;94015.70;834739;71;32739;-78
2021/05/18 14:01:27;;;;;;;1.10;1.10;;;;;;;22.53;32.51;94027.58;834321;71;32780;-79
2021/05/18 14:16:10;;;;;;;2.13;1.60;;;;;;;22.04;33.88;94029.58;830264;71;29952;-82
2021/05/18 15:01:46;;;;;;;2.17;1.80;;;;;;;21.42;34.41;94018.20;828397;71;29741;-81
2021/05/18 15:16:08;;;;;;;2.43;2.23;;;;;;;21.50;34.43;94010.47;828782;71;30100;-81
2021/05/18 15:31:11;;;;;;;1.77;1.67;;;;;;;21.46;34.04;94012.34;828506;71;30641;-78
2021/05/18 15:46:09;;;;;;;2.63;1.80;;;;;;;21.35;33.45;94010.90;828340;71;30255;-78
2021/05/18 16:01:09;;;;;;;1.83;1.50;;;;;;;21.13;33.99;94019.84;828507;71;30193;-79
2021/05/18 16:16:16;;;;;;;1.60;1.50;;;;;;;20.82;34.83;94015.13;827371;71;33126;-78
2021/05/18 16:31:15;;;;;;;2.10;1.90;;;;;;;20.47;35.95;94010.89;834068;71;32681;-80
2021/05/18 16:46:17;;;;;;;2.35;1.67;;;;;;;20.16;36.99;94020.78;825961;71;29707;-79
2021/05/18 17:01:10;;;;;;;1.47;1.47;;;;;;;19.75;38.22;94022.48;821092;71;30449;-79
2021/05/18 17:16:20;;;;;;;4.70;3.10;;;;;;;19.32;39.30;94026.53;834015;71;32695;-80
2021/05/18 17:31:15;;;;;;;4.00;3.60;;;;;;;18.95;40.42;94050.92;827651;71;32651;-78
2021/05/18 17:46:10;;;;;;;3.22;2.95;;;;;;;18.57;42.20;94065.75;828182;71;31310;-80
2021/05/18 18:01:08;;;;;;;4.83;4.42;;;;;;;18.13;44.67;94070.50;828541;71;29667;-79
2021/05/18 18:16:15;;;;;;;8.03;5.70;;;;;;;17.70;45.82;94068.94;827162;71;32688;-78
2021/05/18 18:31:15;;;;;;;5.58;5.08;;;;;;;17.33;47.12;94088.28;833775;71;33172;-78
2021/05/18 18:46:15;;;;;;;3.00;2.80;;;;;;;16.96;47.62;94101.15;822272;70;32820;-77
2021/05/18 19:01:16;;;;;;;3.65;3.12;;;;;;;16.68;48.41;94096.36;827493;71;33103;-77
2021/05/18 19:16:08;;;;;;;7.08;4.80;;;;;;;16.41;49.55;94107.91;834108;71;29219;-77
2021/05/18 19:31:33;;;;;;;5.80;3.70;;;;;;;16.17;50.33;94137.81;834046;71;32275;-76
2021/05/18 20:31:13;;;;;;;2.40;2.10;;;;;;;15.63;49.71;94169.94;828353;71;31088;-78
2021/05/18 20:46:10;;;;;;;6.55;5.62;;;;;;;15.53;50.40;94169.55;828149;71;29730;-75
2021/05/18 21:01:50;;;;;;;2.95;2.70;;;;;;;15.43;51.52;94170.77;828354;71;30943;-74
2021/05/18 21:16:08;;;;;;;3.20;2.90;;;;;;;15.17;53.00;94170.99;828654;71;28401;-77
2021/05/18 21:31:14;;;;;;;3.60;3.40;;;;;;;15.03;53.88;94189.76;827659;71;31822;-77
2021/05/18 21:46:15;;;;;;;2.75;2.55;;;;;;;14.88;54.30;94179.75;828536;71;31746;-77
2021/05/18 22:01:09;;;;;;;2.00;1.82;;;;;;;14.74;54.55;94183.44;834967;71;29333;-76
2021/05/18 22:16:47;;;;;;;2.77;2.58;;;;;;;14.61;55.02;94195.00;829194;71;31709;-78
2021/05/18 22:31:10;;;;;;;2.00;1.90;;;;;;;14.55;54.95;94202.86;828200;71;28736;-75
2021/05/18 22:46:15;;;;;;;2.40;2.15;;;;;;;14.34;56.32;94200.95;833779;71;31844;-75
2021/05/18 23:01:10;;;;;;;2.20;2.10;;;;;;;13.95;58.34;94202.02;828008;71;28909;-73
2021/05/18 23:16:11;;;;;;;4.20;3.65;;;;;;;13.39;59.93;94192.79;828863;71;29710;-79
2021/05/18 23:31:17;;;;;;;5.00;4.42;;;;;;;13.41;60.84;94209.83;827634;71;32639;-77
2021/05/18 23:46:14;;;;;;;5.30;4.15;;;;;;;13.39;61.63;94215.19;827651;71;32674;-76
